sensor_id;sensor_type;location;lat;lon;timestamp;temperature;humidity
2967;DHT22;1493;51.496;7.210;2024-01-15T00:02:25;1.70;99.90
2967;DHT22;1493;51.496;7.210;2024-01-15T00:04:51;1.70;99.90
2967;DHT22;1493;51.496;7.210;2024-01-15T00:07:18;1.70;99.90
2967;DHT22;1493;51.496;7.210;2024-01-15T00:09:45;1.80;99.90
2967;DHT22;1493;51.496;7.210;2024-01-15T00:12:12;1.80;99.90
2967;DHT22;1493;51.496;7.210;2024-01-15T00:14:38;1.80;99.90
2967;DHT22;1493;51.496;7.210;2024-01-15T00:17:07;1.90;99.90
2967;DHT22;1493;51.496;7.210;2024-01-15T00:19:33;1.80;99.90
2967;DHT22;1493;51.496;7.210;2024-01-15T00:22:00;1.80;99.90
2967;DHT22;1493;51.496;7.210;2024-01-15T00:24:27;1.90;99.90
2967;DHT22;1493;51.496;7.210;2024-01-15T00:26:54;1.80;99.90
2967;DHT22;1493;51.496;7.210;2024-01-15T00:29:21;1.80;99.90
2967;DHT22;1493;51.496;7.210;2024-01-15T00:31:48;1.80;99.90
2967;DHT22;1493;51.496;7.210;2024-01-15T00:34:16;1.90;99.90
2967;DHT22;1493;51.496;7.210;2024-01-15T00:36:43;1.80;99.90
2967;DHT22;1493;51.496;7.210;2024-01-15T00:39:09;1.70;99.90
2967;DHT22;1493;51.496;7.210;2024-01-15T00:41:37;1.80;99.90
2967;DHT22;1493;51.496;7.210;2024-01-15T00:44:04;1.80;99.90
2967;DHT22;1493;51.496;7.210;2024-01-15T00:46:30;1.80;99.90
2967;DHT22;1493;51.496;7.210;2024-01-15T00:48:57;1.90;99.90
2967;DHT22;1493;51.496;7.210;2024-01-15T00:51:25;1.90;99.90
2967;DHT22;1493;51.496;7.210;2024-01-15T00:53:52;1.90;99.90
2967;DHT22;1493;51.496;7.210;2024-01-15T00:56:19;1.90;99.90
2967;DHT22;1493;51.496;7.210;2024-01-15T00:58:45;1.90;99.90
2967;DHT22;1493;51.496;7.210;2024-01-15T01:01:12;1.90;99.90
2967;DHT22;1493;51.496;7.210;2024-01-15T01:03:39;1.90;99.90
2967;DHT22;1493;51.496;7.210;2024-01-15T01:06:06;1.90;99.90
2967;DHT22;1493;51.496;7.210;2024-01-15T01:08:34;2.00;99.90
2967;DHT22;1493;51.496;7.210;2024-01-15T01:11:01;1.90;99.90
2967;DHT22;1493;51.496;7.210;2024-01-15T01:13:28;1.90;99.90
2967;DHT22;1493;51.496;7.210;2024-01-15T01:15:54;1.90;99.90
2967;DHT22;1493;51.496;7.210;2024-01-15T01:18:21;1.90;99.90
2967;DHT22;1493;51.496;7.210;2024-01-15T01:20:48;1.90;99.90
2967;DHT22;1493;51.496;7.210;2024-01-15T01:23:15;1.90;99.90
2967;DHT22;1493;51.496;7.210;2024-01-15T01:25:43;1.90;99.90
2967;DHT22;1493;51.496;7.210;2024-01-15T01:28:11;1.90;99.90
2967;DHT22;1493;51.496;7.210;2024-01-15T01:30:38;1.90;99.90
2967;DHT22;1493;51.496;7.210;2024-01-15T01:33:05;2.00;99.90
2967;DHT22;1493;51.496;7.210;2024-01-15T01:35:32;1.90;99.90
2967;DHT22;1493;51.496;7.210;2024-01-15T01:37:58;2.00;99.90
2967;DHT22;1493;51.496;7.210;2024-01-15T01:40:25;2.00;99.90
2967;DHT22;1493;51.496;7.210;2024-01-15T01:42:53;2.00;99.90
2967;DHT22;1493;51.496;7.210;2024-01-15T01:45:20;1.90;99.90
2967;DHT22;1493;51.496;7.210;2024-01-15T01:47:47;2.00;99.90
2967;DHT22;1493;51.496;7.210;2024-01-15T01:50:14;2.00;99.90
2967;DHT22;1493;51.496;7.210;2024-01-15T01:52:41;1.90;99.90
2967;DHT22;1493;51.496;7.210;2024-01-15T01:55:09;2.00;99.90
2967;DHT22;1493;51.496;7.210;2024-01-15T01:57:37;2.00;99.90
2967;DHT22;1493;51.496;7.210;2024-01-15T02:00:07;2.00;99.90
2967;DHT22;1493;51.496;7.210;2024-01-15T02:02:34;2.00;99.90
2967;DHT22;1493;51.496;7.210;2024-01-15T02:05:03;2.00;99.90
2967;DHT22;1493;51.496;7.210;2024-01-15T02:07:31;2.00;99.90
2967;DHT22;1493;51.496;7.210;2024-01-15T02:09:58;2.00;99.90
2967;DHT22;1493;51.496;7.210;2024-01-15T02:12:25;2.00;99.90
2967;DHT22;1493;51.496;7.210;2024-01-15T02:14:54;2.00;99.90
2967;DHT22;1493;51.496;7.210;2024-01-15T02:17:22;2.00;99.90
2967;DHT22;1493;51.496;7.210;2024-01-15T02:19:49;1.90;99.90
2967;DHT22;1493;51.496;7.210;2024-01-15T02:22:16;1.90;99.90
2967;DHT22;1493;51.496;7.210;2024-01-15T02:24:44;1.90;99.90
2967;DHT22;1493;51.496;7.210;2024-01-15T02:27:11;1.80;99.90
2967;DHT22;1493;51.496;7.210;2024-01-15T02:29:38;1.80;99.90
2967;DHT22;1493;51.496;7.210;2024-01-15T02:32:06;1.90;99.90
2967;DHT22;1493;51.496;7.210;2024-01-15T02:34:33;1.90;99.90
2967;DHT22;1493;51.496;7.210;2024-01-15T02:36:59;1.90;99.90
2967;DHT22;1493;51.496;7.210;2024-01-15T02:39:26;1.90;99.90
2967;DHT22;1493;51.496;7.210;2024-01-15T02:41:55;1.90;99.90
2967;DHT22;1493;51.496;7.210;2024-01-15T02:44:23;1.90;99.90
2967;DHT22;1493;51.496;7.210;2024-01-15T02:46:50;2.00;99.90
2967;DHT22;1493;51.496;7.210;2024-01-15T02:49:16;2.00;99.90
2967;DHT22;1493;51.496;7.210;2024-01-15T02:51:43;2.00;99.90
2967;DHT22;1493;51.496;7.210;2024-01-15T02:54:10;2.00;99.90
2967;DHT22;1493;51.496;7.210;2024-01-15T02:56:37;2.00;99.90
2967;DHT22;1493;51.496;7.210;2024-01-15T02:59:05;1.90;99.90
2967;DHT22;1493;51.496;7.210;2024-01-15T03:01:32;1.90;99.90
2967;DHT22;1493;51.496;7.210;2024-01-15T03:03:58;2.00;99.90
2967;DHT22;1493;51.496;7.210;2024-01-15T03:06:25;2.00;99.90
2967;DHT22;1493;51.496;7.210;2024-01-15T03:08:52;2.00;99.90
2967;DHT22;1493;51.496;7.210;2024-01-15T03:11:19;2.10;99.90
2967;DHT22;1493;51.496;7.210;2024-01-15T03:13:45;2.10;99.90
2967;DHT22;1493;51.496;7.210;2024-01-15T03:16:14;2.00;99.90
2967;DHT22;1493;51.496;7.210;2024-01-15T03:18:40;2.00;99.90
2967;DHT22;1493;51.496;7.210;2024-01-15T03:21:07;2.00;99.90
2967;DHT22;1493;51.496;7.210;2024-01-15T03:23:34;2.00;99.90
2967;DHT22;1493;51.496;7.210;2024-01-15T03:26:01;2.10;99.90
2967;DHT22;1493;51.496;7.210;2024-01-15T03:28:27;2.10;99.90
2967;DHT22;1493;51.496;7.210;2024-01-15T03:30:55;2.00;99.90
2967;DHT22;1493;51.496;7.210;2024-01-15T03:33:24;2.00;99.90
2967;DHT22;1493;51.496;7.210;2024-01-15T03:35:50;2.10;99.90
2967;DHT22;1493;51.496;7.210;2024-01-15T03:38:17;2.10;99.90
2967;DHT22;1493;51.496;7.210;2024-01-15T03:40:44;2.10;99.90
2967;DHT22;1493;51.496;7.210;2024-01-15T03:43:11;2.10;99.90
2967;DHT22;1493;51.496;7.210;2024-01-15T03:45:37;2.20;99.90
2967;DHT22;1493;51.496;7.210;2024-01-15T03:48:05;2.20;99.90
2967;DHT22;1493;51.496;7.210;2024-01-15T03:50:33;2.20;99.90
2967;DHT22;1493;51.496;7.210;2024-01-15T03:53:00;2.20;99.90
2967;DHT22;1493;51.496;7.210;2024-01-15T03:55:26;2.20;99.90
2967;DHT22;1493;51.496;7.210;2024-01-15T03:57:54;2.30;99.90
2967;DHT22;1493;51.496;7.210;2024-01-15T04:00:21;2.30;99.90
2967;DHT22;1493;51.496;7.210;2024-01-15T04:02:47;2.30;99.90
2967;DHT22;1493;51.496;7.210;2024-01-15T04:05:14;2.30;99.90
2967;DHT22;1493;51.496;7.210;2024-01-15T04:07:42;2.20;99.90
2967;DHT22;1493;51.496;7.210;2024-01-15T04:10:09;2.20;99.90
2967;DHT22;1493;51.496;7.210;2024-01-15T04:12:36;2.20;99.90
2967;DHT22;1493;51.496;7.210;2024-01-15T04:15:04;2.30;99.90
2967;DHT22;1493;51.496;7.210;2024-01-15T04:17:30;2.20;99.90
2967;DHT22;1493;51.496;7.210;2024-01-15T04:19:59;2.10;99.90
2967;DHT22;1493;51.496;7.210;2024-01-15T04:22:27;2.20;99.90
2967;DHT22;1493;51.496;7.210;2024-01-15T04:24:55;2.10;99.90
2967;DHT22;1493;51.496;7.210;2024-01-15T04:27:22;2.00;99.90
2967;DHT22;1493;51.496;7.210;2024-01-15T04:29:49;2.00;99.90
2967;DHT22;1493;51.496;7.210;2024-01-15T04:32:15;2.10;99.90
2967;DHT22;1493;51.496;7.210;2024-01-15T04:34:42;2.10;99.90
2967;DHT22;1493;51.496;7.210;2024-01-15T04:37:09;2.10;99.90
2967;DHT22;1493;51.496;7.210;2024-01-15T04:39:36;2.10;99.90
2967;DHT22;1493;51.496;7.210;2024-01-15T04:42:04;2.10;99.90
2967;DHT22;1493;51.496;7.210;2024-01-15T04:44:31;2.20;99.90
2967;DHT22;1493;51.496;7.210;2024-01-15T04:46:58;2.10;99.90
2967;DHT22;1493;51.496;7.210;2024-01-15T04:49:25;2.10;99.90
2967;DHT22;1493;51.496;7.210;2024-01-15T04:51:52;2.10;99.90
2967;DHT22;1493;51.496;7.210;2024-01-15T04:54:19;2.20;99.90
2967;DHT22;1493;51.496;7.210;2024-01-15T04:56:46;2.20;99.90
2967;DHT22;1493;51.496;7.210;2024-01-15T04:59:14;2.20;99.90
2967;DHT22;1493;51.496;7.210;2024-01-15T05:01:41;2.20;99.90
2967;DHT22;1493;51.496;7.210;2024-01-15T05:04:08;2.30;99.90
2967;DHT22;1493;51.496;7.210;2024-01-15T05:06:35;2.20;99.90
2967;DHT22;1493;51.496;7.210;2024-01-15T05:09:01;2.30;99.90
2967;DHT22;1493;51.496;7.210;2024-01-15T05:11:29;2.30;99.90
2967;DHT22;1493;51.496;7.210;2024-01-15T05:13:56;2.20;99.90
2967;DHT22;1493;51.496;7.210;2024-01-15T05:16:24;2.30;99.90
2967;DHT22;1493;51.496;7.210;2024-01-15T05:18:51;2.30;99.90
2967;DHT22;1493;51.496;7.210;2024-01-15T05:21:18;2.30;99.90
2967;DHT22;1493;51.496;7.210;2024-01-15T05:23:44;2.30;99.90
2967;DHT22;1493;51.496;7.210;2024-01-15T05:26:11;2.30;99.90
2967;DHT22;1493;51.496;7.210;2024-01-15T05:28:38;2.30;99.90
2967;DHT22;1493;51.496;7.210;2024-01-15T05:31:05;2.20;99.90
2967;DHT22;1493;51.496;7.210;2024-01-15T05:33:33;2.20;99.90
2967;DHT22;1493;51.496;7.210;2024-01-15T05:35:59;2.20;99.90
2967;DHT22;1493;51.496;7.210;2024-01-15T05:38:27;2.20;99.90
2967;DHT22;1493;51.496;7.210;2024-01-15T05:40:54;2.30;99.90
2967;DHT22;1493;51.496;7.210;2024-01-15T05:43:21;2.30;99.90
2967;DHT22;1493;51.496;7.210;2024-01-15T05:45:47;2.30;99.90
2967;DHT22;1493;51.496;7.210;2024-01-15T05:48:14;2.30;99.90
2967;DHT22;1493;51.496;7.210;2024-01-15T05:50:43;2.40;99.90
2967;DHT22;1493;51.496;7.210;2024-01-15T05:53:09;2.30;99.90
2967;DHT22;1493;51.496;7.210;2024-01-15T05:55:36;2.40;99.90
2967;DHT22;1493;51.496;7.210;2024-01-15T05:58:03;2.40;99.90
2967;DHT22;1493;51.496;7.210;2024-01-15T06:00:30;2.40;99.90
2967;DHT22;1493;51.496;7.210;2024-01-15T06:02:58;2.40;99.90
2967;DHT22;1493;51.496;7.210;2024-01-15T06:05:25;2.40;99.90
2967;DHT22;1493;51.496;7.210;2024-01-15T06:07:53;2.30;99.90
2967;DHT22;1493;51.496;7.210;2024-01-15T06:10:20;2.30;99.90
2967;DHT22;1493;51.496;7.210;2024-01-15T06:12:46;2.30;99.90
2967;DHT22;1493;51.496;7.210;2024-01-15T06:15:13;2.40;99.90
2967;DHT22;1493;51.496;7.210;2024-01-15T06:17:40;2.40;99.90
2967;DHT22;1493;51.496;7.210;2024-01-15T06:20:08;2.40;99.90
2967;DHT22;1493;51.496;7.210;2024-01-15T06:22:35;2.40;99.90
2967;DHT22;1493;51.496;7.210;2024-01-15T06:25:06;2.30;99.90
2967;DHT22;1493;51.496;7.210;2024-01-15T06:27:34;2.40;99.90
2967;DHT22;1493;51.496;7.210;2024-01-15T06:30:01;2.40;99.90
2967;DHT22;1493;51.496;7.210;2024-01-15T06:32:28;2.40;99.90
2967;DHT22;1493;51.496;7.210;2024-01-15T06:34:56;2.40;99.90
2967;DHT22;1493;51.496;7.210;2024-01-15T06:37:23;2.40;99.90
2967;DHT22;1493;51.496;7.210;2024-01-15T06:39:49;2.40;99.90
2967;DHT22;1493;51.496;7.210;2024-01-15T06:42:18;2.40;99.90
2967;DHT22;1493;51.496;7.210;2024-01-15T06:44:47;2.40;99.90
2967;DHT22;1493;51.496;7.210;2024-01-15T06:47:14;2.50;99.90
2967;DHT22;1493;51.496;7.210;2024-01-15T06:49:42;2.60;99.90
2967;DHT22;1493;51.496;7.210;2024-01-15T06:52:10;2.50;99.90
2967;DHT22;1493;51.496;7.210;2024-01-15T06:54:38;2.50;99.90
2967;DHT22;1493;51.496;7.210;2024-01-15T06:57:05;2.60;99.90
2967;DHT22;1493;51.496;7.210;2024-01-15T06:59:34;2.50;99.90
2967;DHT22;1493;51.496;7.210;2024-01-15T07:02:01;2.50;99.90
2967;DHT22;1493;51.496;7.210;2024-01-15T07:04:28;2.60;99.90
2967;DHT22;1493;51.496;7.210;2024-01-15T07:06:55;2.50;99.90
2967;DHT22;1493;51.496;7.210;2024-01-15T07:09:21;2.50;99.90
2967;DHT22;1493;51.496;7.210;2024-01-15T07:11:48;2.50;99.90
2967;DHT22;1493;51.496;7.210;2024-01-15T07:14:15;2.50;99.90
2967;DHT22;1493;51.496;7.210;2024-01-15T07:16:43;2.40;99.90
2967;DHT22;1493;51.496;7.210;2024-01-15T07:19:10;2.40;99.90
2967;DHT22;1493;51.496;7.210;2024-01-15T07:21:37;2.50;99.90
2967;DHT22;1493;51.496;7.210;2024-01-15T07:24:05;2.60;99.90
2967;DHT22;1493;51.496;7.210;2024-01-15T07:26:32;2.50;99.90
2967;DHT22;1493;51.496;7.210;2024-01-15T07:28:58;2.50;99.90
2967;DHT22;1493;51.496;7.210;2024-01-15T07:31:26;2.60;99.90
2967;DHT22;1493;51.496;7.210;2024-01-15T07:33:54;2.60;99.90
2967;DHT22;1493;51.496;7.210;2024-01-15T07:36:21;2.60;99.90
2967;DHT22;1493;51.496;7.210;2024-01-15T07:38:48;2.50;99.90
2967;DHT22;1493;51.496;7.210;2024-01-15T07:41:14;2.50;99.90
2967;DHT22;1493;51.496;7.210;2024-01-15T07:43:41;2.50;99.90
2967;DHT22;1493;51.496;7.210;2024-01-15T07:46:08;2.50;99.90
2967;DHT22;1493;51.496;7.210;2024-01-15T07:48:35;2.50;99.90
2967;DHT22;1493;51.496;7.210;2024-01-15T07:51:03;2.40;99.90
2967;DHT22;1493;51.496;7.210;2024-01-15T07:53:30;2.50;99.90
2967;DHT22;1493;51.496;7.210;2024-01-15T07:55:57;2.60;99.90
2967;DHT22;1493;51.496;7.210;2024-01-15T07:58:24;2.50;99.90
2967;DHT22;1493;51.496;7.210;2024-01-15T08:00:51;2.40;99.90
2967;DHT22;1493;51.496;7.210;2024-01-15T08:03:18;2.40;99.90
2967;DHT22;1493;51.496;7.210;2024-01-15T08:05:45;2.40;99.90
2967;DHT22;1493;51.496;7.210;2024-01-15T08:08:17;2.40;99.90
2967;DHT22;1493;51.496;7.210;2024-01-15T08:10:44;2.50;99.90
2967;DHT22;1493;51.496;7.210;2024-01-15T08:13:11;2.50;99.90
2967;DHT22;1493;51.496;7.210;2024-01-15T08:15:38;2.50;99.90
2967;DHT22;1493;51.496;7.210;2024-01-15T08:18:05;2.50;99.90
2967;DHT22;1493;51.496;7.210;2024-01-15T08:20:32;2.40;99.90
2967;DHT22;1493;51.496;7.210;2024-01-15T08:22:58;2.40;99.90
2967;DHT22;1493;51.496;7.210;2024-01-15T08:25:27;2.30;99.90
2967;DHT22;1493;51.496;7.210;2024-01-15T08:27:53;2.30;99.90
2967;DHT22;1493;51.496;7.210;2024-01-15T08:30:20;2.40;99.90
2967;DHT22;1493;51.496;7.210;2024-01-15T08:32:53;2.30;99.90
2967;DHT22;1493;51.496;7.210;2024-01-15T08:35:19;2.30;99.90
2967;DHT22;1493;51.496;7.210;2024-01-15T08:37:48;2.30;99.90
2967;DHT22;1493;51.496;7.210;2024-01-15T08:40:15;2.30;99.90
2967;DHT22;1493;51.496;7.210;2024-01-15T08:42:43;2.20;99.90
2967;DHT22;1493;51.496;7.210;2024-01-15T08:45:11;2.20;99.90
2967;DHT22;1493;51.496;7.210;2024-01-15T08:47:38;2.10;99.90
2967;DHT22;1493;51.496;7.210;2024-01-15T08:50:06;2.20;99.90
2967;DHT22;1493;51.496;7.210;2024-01-15T08:52:35;2.20;99.90
2967;DHT22;1493;51.496;7.210;2024-01-15T08:55:04;2.20;99.90
2967;DHT22;1493;51.496;7.210;2024-01-15T08:57:32;2.30;99.90
2967;DHT22;1493;51.496;7.210;2024-01-15T09:00:00;2.10;99.90
2967;DHT22;1493;51.496;7.210;2024-01-15T09:02:29;2.00;99.90
2967;DHT22;1493;51.496;7.210;2024-01-15T09:04:56;1.90;99.90
2967;DHT22;1493;51.496;7.210;2024-01-15T09:07:22;2.00;99.90
2967;DHT22;1493;51.496;7.210;2024-01-15T09:09:50;2.00;99.90
2967;DHT22;1493;51.496;7.210;2024-01-15T09:12:17;2.00;99.90
2967;DHT22;1493;51.496;7.210;2024-01-15T09:14:46;2.10;99.90
2967;DHT22;1493;51.496;7.210;2024-01-15T09:17:14;2.10;99.90
2967;DHT22;1493;51.496;7.210;2024-01-15T09:19:41;2.00;99.90
2967;DHT22;1493;51.496;7.210;2024-01-15T09:22:14;2.00;99.90
2967;DHT22;1493;51.496;7.210;2024-01-15T09:24:43;2.00;99.90
2967;DHT22;1493;51.496;7.210;2024-01-15T09:27:10;2.00;99.90
2967;DHT22;1493;51.496;7.210;2024-01-15T09:29:41;2.00;99.90
2967;DHT22;1493;51.496;7.210;2024-01-15T09:32:09;2.00;99.90
2967;DHT22;1493;51.496;7.210;2024-01-15T09:34:37;2.00;99.90
2967;DHT22;1493;51.496;7.210;2024-01-15T09:37:04;1.90;99.90
2967;DHT22;1493;51.496;7.210;2024-01-15T09:39:31;1.90;99.90
2967;DHT22;1493;51.496;7.210;2024-01-15T09:41:58;1.90;99.90
2967;DHT22;1493;51.496;7.210;2024-01-15T09:44:27;1.80;99.90
2967;DHT22;1493;51.496;7.210;2024-01-15T09:46:57;1.80;99.90
2967;DHT22;1493;51.496;7.210;2024-01-15T09:49:24;1.70;99.90
2967;DHT22;1493;51.496;7.210;2024-01-15T09:51:53;1.60;99.90
2967;DHT22;1493;51.496;7.210;2024-01-15T09:54:21;1.50;99.90
2967;DHT22;1493;51.496;7.210;2024-01-15T09:56:47;1.60;99.90
2967;DHT22;1493;51.496;7.210;2024-01-15T09:59:15;1.60;99.90
2967;DHT22;1493;51.496;7.210;2024-01-15T10:01:43;1.70;99.90
2967;DHT22;1493;51.496;7.210;2024-01-15T10:04:10;1.70;99.90
2967;DHT22;1493;51.496;7.210;2024-01-15T10:06:38;1.70;99.90
2967;DHT22;1493;51.496;7.210;2024-01-15T10:09:07;1.60;99.90
2967;DHT22;1493;51.496;7.210;2024-01-15T10:11:34;1.70;99.90
2967;DHT22;1493;51.496;7.210;2024-01-15T10:14:05;1.70;99.90
2967;DHT22;1493;51.496;7.210;2024-01-15T10:16:32;1.70;99.90
2967;DHT22;1493;51.496;7.210;2024-01-15T10:18:59;1.80;99.90
2967;DHT22;1493;51.496;7.210;2024-01-15T10:21:26;1.90;99.90
2967;DHT22;1493;51.496;7.210;2024-01-15T10:23:53;2.10;99.90
2967;DHT22;1493;51.496;7.210;2024-01-15T10:26:26;2.40;99.90
2967;DHT22;1493;51.496;7.210;2024-01-15T10:28:55;2.40;99.90
2967;DHT22;1493;51.496;7.210;2024-01-15T10:31:22;2.40;99.90
2967;DHT22;1493;51.496;7.210;2024-01-15T10:33:49;2.40;99.90
2967;DHT22;1493;51.496;7.210;2024-01-15T10:36:16;2.50;99.90
2967;DHT22;1493;51.496;7.210;2024-01-15T10:38:43;2.50;99.90
2967;DHT22;1493;51.496;7.210;2024-01-15T10:41:11;2.50;99.90
2967;DHT22;1493;51.496;7.210;2024-01-15T10:43:39;2.50;99.90
2967;DHT22;1493;51.496;7.210;2024-01-15T10:46:07;2.50;99.90
2967;DHT22;1493;51.496;7.210;2024-01-15T10:48:34;2.50;99.90
2967;DHT22;1493;51.496;7.210;2024-01-15T10:51:01;2.50;99.90
2967;DHT22;1493;51.496;7.210;2024-01-15T10:53:37;2.60;99.90
2967;DHT22;1493;51.496;7.210;2024-01-15T10:56:08;2.60;99.90
2967;DHT22;1493;51.496;7.210;2024-01-15T10:58:37;2.70;99.90
2967;DHT22;1493;51.496;7.210;2024-01-15T11:01:10;2.70;99.90
2967;DHT22;1493;51.496;7.210;2024-01-15T11:03:40;2.70;99.90
2967;DHT22;1493;51.496;7.210;2024-01-15T11:06:16;2.70;99.90
2967;DHT22;1493;51.496;7.210;2024-01-15T11:08:48;2.70;99.90
2967;DHT22;1493;51.496;7.210;2024-01-15T11:11:23;2.50;99.90
2967;DHT22;1493;51.496;7.210;2024-01-15T11:13:58;2.50;99.90
2967;DHT22;1493;51.496;7.210;2024-01-15T11:16:53;2.50;99.90
2967;DHT22;1493;51.496;7.210;2024-01-15T11:19:20;2.40;99.90
2967;DHT22;1493;51.496;7.210;2024-01-15T11:21:47;2.40;99.90
2967;DHT22;1493;51.496;7.210;2024-01-15T11:24:34;2.50;99.90
2967;DHT22;1493;51.496;7.210;2024-01-15T11:27:01;2.60;99.90
2967;DHT22;1493;51.496;7.210;2024-01-15T11:29:30;2.80;99.90
2967;DHT22;1493;51.496;7.210;2024-01-15T11:31:59;2.80;99.90
2967;DHT22;1493;51.496;7.210;2024-01-15T11:34:56;2.70;99.90
2967;DHT22;1493;51.496;7.210;2024-01-15T11:37:28;2.60;99.90
2967;DHT22;1493;51.496;7.210;2024-01-15T11:39:55;2.50;99.90
2967;DHT22;1493;51.496;7.210;2024-01-15T11:42:22;2.60;99.90
2967;DHT22;1493;51.496;7.210;2024-01-15T11:44:49;2.60;99.90
2967;DHT22;1493;51.496;7.210;2024-01-15T11:47:42;2.80;99.90
2967;DHT22;1493;51.496;7.210;2024-01-15T11:50:15;2.90;99.90
2967;DHT22;1493;51.496;7.210;2024-01-15T11:52:47;3.20;99.90
2967;DHT22;1493;51.496;7.210;2024-01-15T11:55:19;3.30;99.90
2967;DHT22;1493;51.496;7.210;2024-01-15T11:57:51;3.20;99.90
2967;DHT22;1493;51.496;7.210;2024-01-15T12:00:18;3.30;99.90
2967;DHT22;1493;51.496;7.210;2024-01-15T12:02:47;3.30;99.90
2967;DHT22;1493;51.496;7.210;2024-01-15T12:05:15;3.40;99.90
2967;DHT22;1493;51.496;7.210;2024-01-15T12:07:43;3.30;99.90
2967;DHT22;1493;51.496;7.210;2024-01-15T12:10:10;3.40;99.90
2967;DHT22;1493;51.496;7.210;2024-01-15T12:12:57;3.40;99.90
2967;DHT22;1493;51.496;7.210;2024-01-15T12:15:25;3.40;99.90
2967;DHT22;1493;51.496;7.210;2024-01-15T12:17:54;3.30;99.90
2967;DHT22;1493;51.496;7.210;2024-01-15T12:20:23;3.00;99.90
2967;DHT22;1493;51.496;7.210;2024-01-15T12:22:50;2.90;99.90
2967;DHT22;1493;51.496;7.210;2024-01-15T12:25:17;2.90;99.90
2967;DHT22;1493;51.496;7.210;2024-01-15T12:27:44;2.80;99.90
2967;DHT22;1493;51.496;7.210;2024-01-15T12:30:12;3.00;99.90
2967;DHT22;1493;51.496;7.210;2024-01-15T12:32:40;3.10;99.90
2967;DHT22;1493;51.496;7.210;2024-01-15T12:35:10;3.20;99.90
2967;DHT22;1493;51.496;7.210;2024-01-15T12:37:37;3.20;99.90
2967;DHT22;1493;51.496;7.210;2024-01-15T12:40:05;3.00;99.90
2967;DHT22;1493;51.496;7.210;2024-01-15T12:42:32;2.80;99.90
2967;DHT22;1493;51.496;7.210;2024-01-15T12:45:00;2.90;99.90
2967;DHT22;1493;51.496;7.210;2024-01-15T12:47:27;2.90;99.90
2967;DHT22;1493;51.496;7.210;2024-01-15T12:49:54;2.80;99.90
2967;DHT22;1493;51.496;7.210;2024-01-15T12:52:22;2.80;99.90
2967;DHT22;1493;51.496;7.210;2024-01-15T12:54:51;2.70;99.90
2967;DHT22;1493;51.496;7.210;2024-01-15T12:57:18;2.70;99.90
2967;DHT22;1493;51.496;7.210;2024-01-15T12:59:45;2.80;99.90
2967;DHT22;1493;51.496;7.210;2024-01-15T13:02:13;3.10;99.90
2967;DHT22;1493;51.496;7.210;2024-01-15T13:04:40;3.20;99.90
2967;DHT22;1493;51.496;7.210;2024-01-15T13:07:09;3.30;99.90
2967;DHT22;1493;51.496;7.210;2024-01-15T13:09:37;3.40;99.90
2967;DHT22;1493;51.496;7.210;2024-01-15T13:12:05;3.40;99.90
2967;DHT22;1493;51.496;7.210;2024-01-15T13:14:32;3.20;99.90
2967;DHT22;1493;51.496;7.210;2024-01-15T13:16:59;3.20;99.90
2967;DHT22;1493;51.496;7.210;2024-01-15T13:19:28;3.30;99.90
2967;DHT22;1493;51.496;7.210;2024-01-15T13:21:55;3.30;99.90
2967;DHT22;1493;51.496;7.210;2024-01-15T13:24:24;3.50;99.90
2967;DHT22;1493;51.496;7.210;2024-01-15T13:26:52;3.60;99.90
2967;DHT22;1493;51.496;7.210;2024-01-15T13:29:19;3.80;99.90
2967;DHT22;1493;51.496;7.210;2024-01-15T13:31:45;4.20;99.90
2967;DHT22;1493;51.496;7.210;2024-01-15T13:34:13;4.50;99.90
2967;DHT22;1493;51.496;7.210;2024-01-15T13:36:40;4.50;99.90
2967;DHT22;1493;51.496;7.210;2024-01-15T13:39:06;4.20;99.90
2967;DHT22;1493;51.496;7.210;2024-01-15T13:41:34;3.90;99.90
2967;DHT22;1493;51.496;7.210;2024-01-15T13:44:03;3.70;99.90
2967;DHT22;1493;51.496;7.210;2024-01-15T13:46:30;3.60;99.90
2967;DHT22;1493;51.496;7.210;2024-01-15T13:48:57;3.40;99.90
2967;DHT22;1493;51.496;7.210;2024-01-15T13:51:23;3.50;99.90
2967;DHT22;1493;51.496;7.210;2024-01-15T13:53:50;3.40;99.90
2967;DHT22;1493;51.496;7.210;2024-01-15T13:56:18;3.40;99.90
2967;DHT22;1493;51.496;7.210;2024-01-15T13:58:46;3.30;99.90
2967;DHT22;1493;51.496;7.210;2024-01-15T14:01:15;3.20;99.90
2967;DHT22;1493;51.496;7.210;2024-01-15T14:03:43;3.20;99.90
2967;DHT22;1493;51.496;7.210;2024-01-15T14:06:09;3.40;99.90
2967;DHT22;1493;51.496;7.210;2024-01-15T14:08:36;3.40;99.90
2967;DHT22;1493;51.496;7.210;2024-01-15T14:11:04;3.20;99.90
2967;DHT22;1493;51.496;7.210;2024-01-15T14:13:31;3.10;99.90
2967;DHT22;1493;51.496;7.210;2024-01-15T14:15:58;2.90;99.90
2967;DHT22;1493;51.496;7.210;2024-01-15T14:18:26;2.80;99.90
2967;DHT22;1493;51.496;7.210;2024-01-15T14:20:53;2.80;99.90
2967;DHT22;1493;51.496;7.210;2024-01-15T14:23:20;2.80;99.90
2967;DHT22;1493;51.496;7.210;2024-01-15T14:25:47;2.90;99.90
2967;DHT22;1493;51.496;7.210;2024-01-15T14:28:14;2.80;99.90
2967;DHT22;1493;51.496;7.210;2024-01-15T14:30:41;2.80;99.90
2967;DHT22;1493;51.496;7.210;2024-01-15T14:33:07;2.70;99.90
2967;DHT22;1493;51.496;7.210;2024-01-15T14:35:36;2.60;99.90
2967;DHT22;1493;51.496;7.210;2024-01-15T14:38:03;2.60;99.90
2967;DHT22;1493;51.496;7.210;2024-01-15T14:40:31;2.60;99.90
2967;DHT22;1493;51.496;7.210;2024-01-15T14:43:00;2.50;99.90
2967;DHT22;1493;51.496;7.210;2024-01-15T14:45:27;2.50;99.90
2967;DHT22;1493;51.496;7.210;2024-01-15T14:47:55;2.50;99.90
2967;DHT22;1493;51.496;7.210;2024-01-15T14:50:24;2.40;99.90
2967;DHT22;1493;51.496;7.210;2024-01-15T14:52:52;2.50;99.90
2967;DHT22;1493;51.496;7.210;2024-01-15T14:55:19;2.40;99.90
2967;DHT22;1493;51.496;7.210;2024-01-15T14:57:48;2.40;99.90
2967;DHT22;1493;51.496;7.210;2024-01-15T15:00:15;2.40;99.90
2967;DHT22;1493;51.496;7.210;2024-01-15T15:02:42;2.50;99.90
2967;DHT22;1493;51.496;7.210;2024-01-15T15:05:11;2.50;99.90
2967;DHT22;1493;51.496;7.210;2024-01-15T15:07:39;2.40;99.90
2967;DHT22;1493;51.496;7.210;2024-01-15T15:10:08;2.40;99.90
2967;DHT22;1493;51.496;7.210;2024-01-15T15:12:36;2.40;99.90
2967;DHT22;1493;51.496;7.210;2024-01-15T15:15:04;2.50;99.90
2967;DHT22;1493;51.496;7.210;2024-01-15T15:17:30;2.40;99.90
2967;DHT22;1493;51.496;7.210;2024-01-15T15:19:59;2.30;99.90
2967;DHT22;1493;51.496;7.210;2024-01-15T15:22:28;2.40;99.90
2967;DHT22;1493;51.496;7.210;2024-01-15T15:24:55;2.40;99.90
2967;DHT22;1493;51.496;7.210;2024-01-15T15:27:23;2.40;99.90
2967;DHT22;1493;51.496;7.210;2024-01-15T15:29:50;2.40;99.90
2967;DHT22;1493;51.496;7.210;2024-01-15T15:32:17;2.30;99.90
2967;DHT22;1493;51.496;7.210;2024-01-15T15:34:43;2.30;99.90
2967;DHT22;1493;51.496;7.210;2024-01-15T15:37:10;2.20;99.90
2967;DHT22;1493;51.496;7.210;2024-01-15T15:39:37;2.10;99.90
2967;DHT22;1493;51.496;7.210;2024-01-15T15:42:04;2.10;99.90
2967;DHT22;1493;51.496;7.210;2024-01-15T15:44:33;2.10;99.90
2967;DHT22;1493;51.496;7.210;2024-01-15T15:46:59;2.10;99.90
2967;DHT22;1493;51.496;7.210;2024-01-15T15:49:28;2.10;99.90
2967;DHT22;1493;51.496;7.210;2024-01-15T15:51:55;2.10;99.90
2967;DHT22;1493;51.496;7.210;2024-01-15T15:54:22;2.20;99.90
2967;DHT22;1493;51.496;7.210;2024-01-15T15:56:48;2.20;99.90
2967;DHT22;1493;51.496;7.210;2024-01-15T15:59:17;2.20;99.90
2967;DHT22;1493;51.496;7.210;2024-01-15T16:01:48;2.30;99.90
2967;DHT22;1493;51.496;7.210;2024-01-15T16:04:15;2.20;99.90
2967;DHT22;1493;51.496;7.210;2024-01-15T16:06:43;2.10;99.90
2967;DHT22;1493;51.496;7.210;2024-01-15T16:09:12;2.10;99.90
2967;DHT22;1493;51.496;7.210;2024-01-15T16:11:39;2.10;99.90
2967;DHT22;1493;51.496;7.210;2024-01-15T16:14:06;2.00;99.90
2967;DHT22;1493;51.496;7.210;2024-01-15T16:16:35;1.90;99.90
2967;DHT22;1493;51.496;7.210;2024-01-15T16:19:05;1.80;99.90
2967;DHT22;1493;51.496;7.210;2024-01-15T16:21:35;1.70;99.90